Time;durP1;ratioP1;P1;durP2;ratioP2;P2;SDS_P1;SDS_P2;PMS_P1;PMS_P2;Temp;Humidity;BMP_temperature;BMP_pressure;BME280_temperature;BME280_humidity;BME280_pressure;Samples;Min_cycle;Max_cycle;Signal;HPM_P1;HPM_P2
2023/01/14 00:00:11;;;;;;;3.40;1.90;;;5.60;99.90;;;;;;4952494;28;20207;-69
2023/01/14 00:02:39;;;;;;;5.07;2.10;;;5.60;99.90;;;;;;4949709;29;20208;-70
2023/01/14 00:05:06;;;;;;;4.07;1.85;;;5.60;99.90;;;;;;4948265;29;20216;-69
2023/01/14 00:07:33;;;;;;;5.70;2.58;;;5.60;99.90;;;;;;4943361;28;20223;-69
2023/01/14 00:10:02;;;;;;;5.05;1.88;;;5.60;99.90;;;;;;4948867;29;20292;-69
2023/01/14 00:12:29;;;;;;;5.78;2.28;;;5.50;99.90;;;;;;4939672;29;20296;-70
2023/01/14 00:14:55;;;;;;;5.40;2.28;;;5.60;99.90;;;;;;4941071;29;20583;-70
2023/01/14 00:17:23;;;;;;;4.43;2.25;;;5.60;99.90;;;;;;4940703;29;20633;-70
2023/01/14 00:19:50;;;;;;;7.60;2.08;;;5.60;99.90;;;;;;4949584;29;20204;-70
2023/01/14 00:22:17;;;;;;;3.75;1.60;;;5.60;99.90;;;;;;4939281;29;20209;-70
2023/01/14 00:24:44;;;;;;;4.05;1.90;;;5.60;99.90;;;;;;4943059;29;20303;-69
2023/01/14 00:27:15;;;;;;;4.95;2.70;;;5.60;99.90;;;;;;4950377;29;20255;-69
2023/01/14 00:29:42;;;;;;;7.78;2.17;;;5.60;99.90;;;;;;4950236;29;20279;-70
2023/01/14 00:32:10;;;;;;;6.95;2.03;;;5.60;99.90;;;;;;4942812;29;20733;-69
2023/01/14 00:34:37;;;;;;;7.05;2.92;;;5.60;99.90;;;;;;4947552;29;20248;-70
2023/01/14 00:37:04;;;;;;;6.10;2.88;;;5.60;99.90;;;;;;4944933;29;20228;-70
2023/01/14 00:39:31;;;;;;;9.93;3.22;;;5.60;99.90;;;;;;4944956;28;20204;-70
2023/01/14 00:41:58;;;;;;;5.55;2.40;;;5.60;99.90;;;;;;4955725;29;20189;-69
2023/01/14 00:44:27;;;;;;;5.32;2.28;;;5.60;99.90;;;;;;4953839;29;20200;-70
2023/01/14 00:46:54;;;;;;;6.80;2.30;;;5.50;99.90;;;;;;4944303;28;20207;-70
2023/01/14 00:49:23;;;;;;;4.30;1.90;;;5.50;99.90;;;;;;4953940;29;20200;-70
2023/01/14 00:51:51;;;;;;;7.05;2.13;;;5.50;99.90;;;;;;4954134;29;20649;-69
2023/01/14 00:54:19;;;;;;;5.50;2.08;;;5.50;99.90;;;;;;4948499;28;20285;-70
2023/01/14 00:56:46;;;;;;;8.23;2.42;;;5.50;99.90;;;;;;4949411;29;20225;-70
2023/01/14 00:59:18;;;;;;;6.45;2.78;;;5.50;99.90;;;;;;4955011;29;20204;-69
2023/01/14 01:01:47;;;;;;;4.03;2.03;;;5.50;99.90;;;;;;4954708;29;20450;-69
2023/01/14 01:04:14;;;;;;;6.18;2.60;;;5.50;99.90;;;;;;4950122;28;20976;-69
2023/01/14 01:06:41;;;;;;;3.67;2.35;;;5.40;99.90;;;;;;4953515;29;20205;-70
2023/01/14 01:09:08;;;;;;;4.22;1.83;;;5.40;99.90;;;;;;4941382;29;20201;-69
2023/01/14 01:11:35;;;;;;;7.97;2.17;;;5.40;99.90;;;;;;4950446;29;20200;-69
2023/01/14 01:14:02;;;;;;;5.60;1.70;;;5.50;99.90;;;;;;4952231;28;20196;-69
2023/01/14 01:16:29;;;;;;;6.40;2.20;;;5.50;99.90;;;;;;4951399;28;20232;-70
2023/01/14 01:18:57;;;;;;;4.63;1.95;;;5.50;99.90;;;;;;4945037;29;20287;-69
2023/01/14 01:21:25;;;;;;;5.10;2.22;;;5.50;99.90;;;;;;4951393;29;20335;-69
2023/01/14 01:23:54;;;;;;;4.55;2.10;;;5.50;99.90;;;;;;4945206;29;20611;-70
2023/01/14 01:26:22;;;;;;;5.05;1.80;;;5.50;99.90;;;;;;4946049;29;20706;-70
2023/01/14 01:28:50;;;;;;;6.47;2.10;;;5.50;99.90;;;;;;4953420;29;20198;-70
2023/01/14 01:31:18;;;;;;;6.47;2.03;;;5.50;99.90;;;;;;4953665;29;20204;-70
2023/01/14 01:33:45;;;;;;;4.43;2.10;;;5.40;99.90;;;;;;4951387;29;20280;-70
2023/01/14 01:36:15;;;;;;;4.85;1.98;;;5.40;99.90;;;;;;4954005;29;20220;-70
2023/01/14 01:38:43;;;;;;;6.43;2.75;;;5.40;99.90;;;;;;4947100;29;20200;-69
2023/01/14 01:41:15;;;;;;;3.92;2.05;;;5.30;99.90;;;;;;4952650;29;20216;-70
2023/01/14 01:44:00;;;;;;;6.35;2.10;;;5.20;99.90;;;;;;4952747;28;20197;-70
2023/01/14 01:46:28;;;;;;;4.80;2.53;;;5.10;99.90;;;;;;4939704;29;20224;-70
2023/01/14 01:48:57;;;;;;;7.00;2.38;;;5.10;99.90;;;;;;4944619;28;20204;-70
2023/01/14 01:51:28;;;;;;;6.45;2.35;;;5.00;99.90;;;;;;4937186;29;20204;-69
2023/01/14 01:53:58;;;;;;;7.25;2.63;;;5.00;99.90;;;;;;4951315;28;20228;-70
2023/01/14 01:56:29;;;;;;;5.78;2.47;;;4.90;99.90;;;;;;4953817;28;20236;-70
2023/01/14 01:58:57;;;;;;;6.85;2.72;;;4.80;99.90;;;;;;4943700;29;20200;-70
2023/01/14 02:01:25;;;;;;;7.15;3.00;;;4.80;99.90;;;;;;4949726;29;20196;-70
2023/01/14 02:03:53;;;;;;;4.72;2.05;;;4.70;99.90;;;;;;4950175;29;20295;-70
2023/01/14 02:06:21;;;;;;;4.30;2.25;;;4.70;99.90;;;;;;4944379;29;20785;-70
2023/01/14 02:08:51;;;;;;;4.82;2.33;;;4.70;99.90;;;;;;4951848;28;20255;-70
2023/01/14 02:11:39;;;;;;;6.95;2.20;;;4.70;99.90;;;;;;4949076;29;20207;-70
2023/01/14 02:14:17;;;;;;;7.43;2.63;;;4.70;99.90;;;;;;4951504;28;20192;-70
2023/01/14 02:16:54;;;;;;;5.80;2.10;;;4.80;99.90;;;;;;4950329;29;20259;-70
2023/01/14 02:19:39;;;;;;;3.67;1.63;;;4.80;99.90;;;;;;4947596;29;20231;-70
2023/01/14 02:22:24;;;;;;;8.52;2.72;;;4.80;99.90;;;;;;4938483;29;20283;-70
2023/01/14 02:25:12;;;;;;;5.38;2.28;;;4.80;99.90;;;;;;4953658;29;20229;-69
2023/01/14 02:27:47;;;;;;;5.65;2.10;;;4.80;99.90;;;;;;4946369;29;20674;-70
2023/01/14 02:30:43;;;;;;;4.97;2.00;;;4.80;99.90;;;;;;4952848;28;20653;-70
2023/01/14 02:33:22;;;;;;;8.63;2.50;;;4.80;99.90;;;;;;4944859;29;20204;-69
2023/01/14 02:35:55;;;;;;;5.45;1.60;;;4.80;99.90;;;;;;4946640;29;20232;-70
2023/01/14 02:38:30;;;;;;;9.25;2.13;;;4.80;99.90;;;;;;4949900;29;20216;-70
2023/01/14 02:41:02;;;;;;;9.13;2.47;;;4.80;99.90;;;;;;4936914;29;20334;-70
2023/01/14 02:46:30;;;;;;;5.15;2.17;;;4.70;99.90;;;;;;4951849;29;20290;-70
2023/01/14 02:48:58;;;;;;;6.75;2.03;;;4.70;99.90;;;;;;4949552;29;20196;-70
2023/01/14 02:51:26;;;;;;;3.45;2.00;;;4.70;99.90;;;;;;4949717;29;20560;-70
2023/01/14 02:53:54;;;;;;;7.25;2.00;;;4.80;99.90;;;;;;4949041;29;20270;-69
2023/01/14 02:56:21;;;;;;;6.20;2.42;;;4.80;99.90;;;;;;4939097;29;20227;-70
2023/01/14 02:59:07;;;;;;;4.55;1.85;;;4.90;99.90;;;;;;4948357;29;20298;-69
2023/01/14 03:01:48;;;;;;;5.30;1.80;;;5.00;99.90;;;;;;4951171;28;20263;-70
2023/01/14 03:04:38;;;;;;;5.68;1.98;;;5.10;99.90;;;;;;4951227;29;20200;-70
2023/01/14 03:07:12;;;;;;;5.65;1.90;;;5.10;99.90;;;;;;4950672;28;20196;-70
2023/01/14 03:09:53;;;;;;;5.13;1.70;;;5.10;99.90;;;;;;4949778;29;20834;-69
2023/01/14 03:12:31;;;;;;;4.60;1.92;;;5.10;99.90;;;;;;4949201;29;20751;-70
2023/01/14 03:15:07;;;;;;;4.30;2.10;;;5.10;99.90;;;;;;4950434;29;20714;-70
2023/01/14 03:17:41;;;;;;;5.00;2.17;;;5.10;99.90;;;;;;4946038;29;20209;-69
2023/01/14 03:20:13;;;;;;;5.97;2.22;;;5.10;99.90;;;;;;4939566;29;20607;-70
2023/01/14 03:22:42;;;;;;;4.93;1.92;;;5.10;99.90;;;;;;4946845;29;20204;-69
2023/01/14 03:25:13;;;;;;;5.53;1.90;;;5.10;99.90;;;;;;4951561;29;20220;-69
2023/01/14 03:27:42;;;;;;;3.45;1.83;;;5.10;99.90;;;;;;4951896;28;20258;-69
2023/01/14 03:30:13;;;;;;;3.85;1.45;;;5.10;99.90;;;;;;4949767;29;20196;-70
2023/01/14 03:32:45;;;;;;;11.93;2.63;;;5.10;99.90;;;;;;4951051;29;20200;-69
2023/01/14 03:35:17;;;;;;;6.53;1.73;;;5.10;99.90;;;;;;4948886;29;20235;-70
2023/01/14 03:37:51;;;;;;;5.60;1.85;;;5.10;99.90;;;;;;4949359;29;20323;-69
2023/01/14 03:40:21;;;;;;;3.05;2.17;;;5.10;99.90;;;;;;4952016;29;20287;-69
2023/01/14 03:42:53;;;;;;;6.22;1.60;;;5.10;99.90;;;;;;4951039;28;20203;-69
2023/01/14 03:45:24;;;;;;;1.90;1.30;;;5.10;99.90;;;;;;4947568;29;20296;-70
2023/01/14 03:47:53;;;;;;;3.80;1.50;;;5.10;99.90;;;;;;4937679;29;20197;-69
2023/01/14 03:50:23;;;;;;;4.70;1.83;;;5.10;99.90;;;;;;4950210;29;20212;-70
2023/01/14 03:53:05;;;;;;;6.93;1.95;;;5.10;99.90;;;;;;4939351;29;20346;-69
2023/01/14 03:55:41;;;;;;;5.88;1.70;;;5.20;99.90;;;;;;4943127;29;20228;-70
2023/01/14 03:58:16;;;;;;;5.05;1.38;;;5.20;99.90;;;;;;4950828;29;20216;-70
2023/01/14 04:00:48;;;;;;;3.97;1.50;;;5.10;99.90;;;;;;4935013;29;20193;-69
2023/01/14 04:03:17;;;;;;;5.50;1.75;;;5.10;99.90;;;;;;4948413;29;20597;-70
2023/01/14 04:05:45;;;;;;;5.18;1.80;;;5.10;99.90;;;;;;4949403;29;20219;-70
2023/01/14 04:08:12;;;;;;;5.80;1.70;;;5.10;99.90;;;;;;4939692;29;20208;-69
2023/01/14 04:10:39;;;;;;;3.88;1.67;;;5.00;99.90;;;;;;4951458;29;20198;-70
2023/01/14 04:15:50;;;;;;;4.45;1.52;;;5.00;99.90;;;;;;4942151;29;20299;-69
2023/01/14 04:18:19;;;;;;;5.03;1.50;;;5.00;99.90;;;;;;4951586;29;20228;-70
2023/01/14 04:20:46;;;;;;;6.15;1.40;;;5.00;99.90;;;;;;4946480;29;20205;-69
2023/01/14 04:23:13;;;;;;;7.63;2.25;;;5.00;99.90;;;;;;4944043;29;20669;-69
2023/01/14 04:25:40;;;;;;;3.25;1.70;;;5.00;99.90;;;;;;4954822;28;20278;-70
2023/01/14 04:28:07;;;;;;;5.57;1.80;;;4.90;99.90;;;;;;4954128;29;20197;-70
2023/01/14 04:30:34;;;;;;;2.13;1.38;;;4.90;99.90;;;;;;4953527;28;20600;-70
2023/01/14 04:33:01;;;;;;;5.65;1.60;;;4.90;99.90;;;;;;4952519;29;20273;-69
2023/01/14 04:35:29;;;;;;;3.72;1.75;;;4.90;99.90;;;;;;4936800;29;20585;-70
2023/01/14 04:37:56;;;;;;;6.07;1.58;;;4.90;99.90;;;;;;4946977;29;20234;-70
2023/01/14 04:40:23;;;;;;;2.97;1.48;;;4.90;99.90;;;;;;4954674;28;20200;-70
2023/01/14 04:42:50;;;;;;;7.07;2.05;;;4.90;99.90;;;;;;4942728;29;20204;-69
2023/01/14 04:45:17;;;;;;;4.80;2.35;;;5.00;99.90;;;;;;4943770;29;20224;-69
2023/01/14 04:47:44;;;;;;;2.65;1.10;;;5.00;99.90;;;;;;4952919;29;20291;-69
2023/01/14 04:50:33;;;;;;;3.78;1.75;;;5.00;99.90;;;;;;4955240;29;20211;-69
2023/01/14 04:53:10;;;;;;;3.97;1.45;;;5.00;99.90;;;;;;4954279;28;20193;-69
2023/01/14 04:55:38;;;;;;;2.92;1.80;;;5.10;99.90;;;;;;4953227;29;20230;-69
2023/01/14 04:58:07;;;;;;;4.80;1.60;;;5.10;99.90;;;;;;4949211;29;20232;-69
2023/01/14 05:00:34;;;;;;;3.75;1.40;;;5.10;99.90;;;;;;4949039;29;20200;-69
2023/01/14 05:03:03;;;;;;;3.58;1.73;;;5.10;99.90;;;;;;4954332;29;20201;-69
2023/01/14 05:05:30;;;;;;;2.92;1.20;;;5.10;99.90;;;;;;4954457;29;20224;-69
2023/01/14 05:07:58;;;;;;;2.67;1.30;;;5.10;99.90;;;;;;4948665;28;20564;-69
2023/01/14 05:10:27;;;;;;;2.63;1.40;;;5.10;99.90;;;;;;4954559;29;20228;-69
2023/01/14 05:12:57;;;;;;;6.18;1.98;;;5.10;99.90;;;;;;4952008;28;20235;-69
2023/01/14 05:15:26;;;;;;;3.45;1.52;;;5.20;99.90;;;;;;4942417;29;20710;-70
2023/01/14 05:17:53;;;;;;;2.88;1.25;;;5.20;99.90;;;;;;4953058;29;20236;-69
2023/01/14 05:20:23;;;;;;;2.50;1.38;;;5.20;99.90;;;;;;4953748;28;20213;-69
2023/01/14 05:22:50;;;;;;;4.40;1.25;;;5.20;99.90;;;;;;4953209;29;20260;-69
2023/01/14 05:25:18;;;;;;;4.47;1.65;;;5.20;99.90;;;;;;4948780;28;20248;-69
2023/01/14 05:27:47;;;;;;;4.47;1.40;;;5.20;99.90;;;;;;4950746;29;20208;-69
2023/01/14 05:30:15;;;;;;;2.53;1.20;;;5.20;99.90;;;;;;4944006;29;20228;-69
2023/01/14 05:32:42;;;;;;;3.10;1.60;;;5.30;99.90;;;;;;4950637;29;20601;-69
2023/01/14 05:35:10;;;;;;;4.88;1.40;;;5.30;99.90;;;;;;4950978;29;20283;-69
2023/01/14 05:37:37;;;;;;;4.95;1.58;;;5.30;99.90;;;;;;4952563;29;20311;-69
2023/01/14 05:40:05;;;;;;;6.55;1.95;;;5.30;99.90;;;;;;4953309;29;20196;-69
2023/01/14 05:48:04;;;;;;;3.80;1.90;;;5.30;99.90;;;;;;4938321;29;20267;-69
2023/01/14 05:50:31;;;;;;;5.53;1.80;;;5.20;99.90;;;;;;4942712;29;20203;-69
2023/01/14 05:52:59;;;;;;;5.78;1.90;;;5.20;99.90;;;;;;4948550;29;20204;-69
2023/01/14 05:55:26;;;;;;;6.13;1.90;;;5.30;99.90;;;;;;4944851;29;20303;-69
2023/01/14 05:57:53;;;;;;;4.30;1.58;;;5.20;99.90;;;;;;4949733;29;20311;-69
2023/01/14 06:08:42;;;;;;;2.85;1.40;;;5.30;99.90;;;;;;4937279;29;20200;-69
2023/01/14 06:11:10;;;;;;;5.28;1.48;;;5.30;99.90;;;;;;4953044;29;20315;-69
2023/01/14 06:13:37;;;;;;;5.03;1.75;;;5.20;99.90;;;;;;4950838;29;20201;-69
2023/01/14 06:16:07;;;;;;;4.05;1.50;;;5.20;99.90;;;;;;4950813;29;20204;-69
2023/01/14 06:18:41;;;;;;;5.30;1.40;;;5.20;99.90;;;;;;4952754;28;20236;-69
2023/01/14 06:21:10;;;;;;;4.13;1.50;;;5.20;99.90;;;;;;4936081;29;20200;-69
2023/01/14 06:23:38;;;;;;;8.90;1.98;;;5.20;99.90;;;;;;4953616;29;20204;-69
2023/01/14 06:26:10;;;;;;;4.88;1.80;;;5.20;99.90;;;;;;4948540;29;20291;-69
2023/01/14 06:28:37;;;;;;;2.90;2.10;;;5.20;99.90;;;;;;4953536;29;20193;-69
2023/01/14 06:31:11;;;;;;;4.10;1.40;;;5.20;99.90;;;;;;4947162;29;20204;-69
2023/01/14 06:33:39;;;;;;;3.55;1.48;;;5.20;99.90;;;;;;4944641;29;20200;-69
2023/01/14 06:36:08;;;;;;;6.13;1.98;;;5.20;99.90;;;;;;4948730;28;20198;-69
2023/01/14 06:38:36;;;;;;;3.83;1.90;;;5.20;99.90;;;;;;4952377;28;20751;-69
2023/01/14 06:41:05;;;;;;;4.43;1.60;;;5.20;99.90;;;;;;4944120;28;20684;-69
2023/01/14 06:43:33;;;;;;;5.32;1.60;;;5.20;99.90;;;;;;4953239;29;20743;-69
2023/01/14 06:46:00;;;;;;;4.70;1.70;;;5.10;99.90;;;;;;4950568;29;20207;-69
2023/01/14 06:48:30;;;;;;;5.28;1.75;;;5.10;99.90;;;;;;4952150;29;20204;-69
2023/01/14 06:50:57;;;;;;;6.53;1.90;;;5.10;99.90;;;;;;4950314;29;20196;-69
2023/01/14 06:53:24;;;;;;;6.22;1.90;;;5.10;99.90;;;;;;4948482;29;20248;-68
2023/01/14 06:55:52;;;;;;;4.22;1.77;;;5.10;99.90;;;;;;4949076;28;20585;-70
2023/01/14 06:58:19;;;;;;;4.20;1.65;;;5.00;99.90;;;;;;4960552;28;20322;-69
2023/01/14 07:00:47;;;;;;;3.92;1.45;;;5.00;99.90;;;;;;4952455;29;20271;-70
2023/01/14 07:03:14;;;;;;;5.53;1.50;;;5.00;99.90;;;;;;4935655;29;20822;-70
2023/01/14 07:05:43;;;;;;;4.60;1.80;;;5.00;99.90;;;;;;4944036;29;20224;-69
2023/01/14 07:08:10;;;;;;;5.95;1.60;;;5.00;99.90;;;;;;4946485;29;20239;-70
2023/01/14 07:10:37;;;;;;;3.08;1.55;;;5.00;99.90;;;;;;4952343;29;20204;-70
2023/01/14 07:13:05;;;;;;;4.97;1.40;;;5.10;99.90;;;;;;4943368;29;20653;-71
2023/01/14 07:15:32;;;;;;;5.32;1.83;;;5.00;99.90;;;;;;4959629;28;20239;-70
2023/01/14 07:18:00;;;;;;;3.38;1.40;;;5.00;99.90;;;;;;4949276;28;20311;-71
2023/01/14 07:20:27;;;;;;;4.20;1.65;;;5.10;99.90;;;;;;4942992;29;20207;-71
2023/01/14 07:22:56;;;;;;;3.83;1.35;;;5.10;99.90;;;;;;4949430;29;20593;-70
2023/01/14 07:25:24;;;;;;;3.28;1.60;;;5.10;99.90;;;;;;4947201;29;20224;-70
2023/01/14 07:27:52;;;;;;;5.07;1.67;;;5.10;99.90;;;;;;4951650;29;20238;-70
2023/01/14 07:30:20;;;;;;;7.00;2.15;;;5.20;99.90;;;;;;4949926;29;20201;-70
2023/01/14 07:32:47;;;;;;;4.78;2.22;;;5.20;99.90;;;;;;4953291;28;20212;-70
2023/01/14 07:35:15;;;;;;;2.83;1.40;;;5.20;99.90;;;;;;4950800;28;20228;-71
2023/01/14 07:37:42;;;;;;;4.93;1.80;;;5.20;99.90;;;;;;4952068;29;20227;-70
2023/01/14 07:40:12;;;;;;;3.78;1.80;;;5.20;99.90;;;;;;4947185;29;20208;-70
2023/01/14 07:42:40;;;;;;;5.47;2.28;;;5.20;99.90;;;;;;4945151;29;20197;-70
2023/01/14 07:45:09;;;;;;;3.80;1.80;;;5.10;99.90;;;;;;4943753;29;20216;-69
2023/01/14 07:47:36;;;;;;;3.92;1.90;;;5.20;99.90;;;;;;4950580;29;20287;-70
2023/01/14 07:50:04;;;;;;;4.05;2.58;;;5.10;99.90;;;;;;4951738;29;20291;-70
2023/01/14 07:52:32;;;;;;;5.15;1.60;;;5.20;99.90;;;;;;4934567;28;20212;-71
2023/01/14 07:55:00;;;;;;;4.32;1.80;;;5.20;99.90;;;;;;4936031;28;20224;-72
2023/01/14 07:57:28;;;;;;;3.55;1.70;;;5.20;99.90;;;;;;4950246;28;20197;-70
2023/01/14 07:59:55;;;;;;;7.30;1.95;;;5.20;99.90;;;;;;4951419;28;20231;-68
2023/01/14 08:02:23;;;;;;;4.00;1.80;;;5.30;99.90;;;;;;4953624;28;20228;-70
2023/01/14 08:04:50;;;;;;;4.90;1.65;;;5.30;99.90;;;;;;4953855;28;20286;-70
2023/01/14 08:07:18;;;;;;;6.75;2.30;;;5.40;99.90;;;;;;4952229;28;20291;-70
2023/01/14 08:09:45;;;;;;;6.47;2.47;;;5.40;99.90;;;;;;4955354;28;20624;-71
2023/01/14 08:12:13;;;;;;;3.95;1.95;;;5.40;99.90;;;;;;4948320;28;20200;-71
2023/01/14 08:14:41;;;;;;;6.35;2.35;;;5.50;99.90;;;;;;4950234;28;20216;-70
2023/01/14 08:17:09;;;;;;;3.40;1.95;;;5.50;99.90;;;;;;4942392;28;20201;-70
2023/01/14 08:19:36;;;;;;;8.20;2.33;;;5.60;99.90;;;;;;4955951;28;20628;-70
2023/01/14 08:22:04;;;;;;;6.90;1.90;;;5.70;99.90;;;;;;4954579;28;20224;-71
2023/01/14 08:24:32;;;;;;;4.40;2.00;;;5.70;99.90;;;;;;4948334;28;20688;-68
2023/01/14 08:26:59;;;;;;;3.47;1.48;;;5.80;99.90;;;;;;4949139;28;20303;-68
2023/01/14 08:29:26;;;;;;;5.60;2.10;;;5.90;99.90;;;;;;4949596;28;20201;-68
2023/01/14 08:31:55;;;;;;;3.40;1.98;;;6.00;99.90;;;;;;4948736;28;20192;-70
2023/01/14 08:34:23;;;;;;;7.45;1.80;;;6.00;99.90;;;;;;4954756;28;20219;-70
2023/01/14 08:36:51;;;;;;;4.45;1.73;;;6.10;99.90;;;;;;4940814;28;20203;-70
2023/01/14 08:39:19;;;;;;;4.85;1.90;;;6.20;99.90;;;;;;4943555;28;20322;-70
2023/01/14 08:41:46;;;;;;;9.18;2.10;;;6.30;99.90;;;;;;4942685;28;20255;-69
2023/01/14 08:44:13;;;;;;;4.75;1.80;;;6.30;99.90;;;;;;4954420;28;20223;-69
2023/01/14 08:46:42;;;;;;;7.35;2.50;;;6.40;99.90;;;;;;4944994;28;20545;-69
2023/01/14 08:49:12;;;;;;;4.00;1.50;;;6.50;99.90;;;;;;4955938;28;20207;-69
2023/01/14 08:51:39;;;;;;;6.85;1.80;;;6.50;99.90;;;;;;4957338;28;20208;-69
2023/01/14 08:54:07;;;;;;;5.93;2.15;;;6.60;99.90;;;;;;4954706;28;20224;-69
2023/01/14 08:56:34;;;;;;;4.80;2.00;;;6.70;99.90;;;;;;4947250;28;20240;-69
2023/01/14 08:59:03;;;;;;;4.38;2.10;;;6.80;99.90;;;;;;4950204;28;20891;-70
2023/01/14 09:01:30;;;;;;;4.82;1.90;;;6.80;99.90;;;;;;4944711;28;20585;-78
2023/01/14 09:04:00;;;;;;;5.97;1.90;;;6.90;99.90;;;;;;4957893;28;20672;-70
2023/01/14 09:06:28;;;;;;;5.93;2.47;;;7.00;99.90;;;;;;4959316;28;20219;-70
2023/01/14 09:17:18;;;;;;;5.13;1.85;;;7.30;99.90;;;;;;4950851;29;20208;-73
2023/01/14 09:19:48;;;;;;;4.03;1.90;;;7.30;99.90;;;;;;4952392;29;20251;-72
2023/01/14 09:22:20;;;;;;;6.53;1.95;;;7.30;99.90;;;;;;4945327;28;20210;-73
2023/01/14 09:24:48;;;;;;;6.32;2.28;;;7.40;99.90;;;;;;4949050;29;20233;-74
2023/01/14 09:27:16;;;;;;;6.57;2.15;;;7.40;99.90;;;;;;4946064;29;20712;-74
2023/01/14 09:29:43;;;;;;;7.63;1.88;;;7.40;99.90;;;;;;4938536;28;20223;-75
2023/01/14 09:32:12;;;;;;;4.97;1.92;;;7.50;99.90;;;;;;4951488;28;20841;-74
2023/01/14 09:34:41;;;;;;;6.18;1.90;;;7.50;99.90;;;;;;4945067;28;20301;-75
2023/01/14 09:37:09;;;;;;;4.78;1.70;;;7.60;99.90;;;;;;4952536;28;20554;-76
2023/01/14 09:39:39;;;;;;;4.20;1.60;;;7.60;99.90;;;;;;4953593;28;20212;-75
2023/01/14 09:42:11;;;;;;;6.93;1.90;;;7.60;99.90;;;;;;4939279;28;21174;-75
2023/01/14 09:44:41;;;;;;;7.82;2.00;;;7.70;99.90;;;;;;4934734;29;20221;-75
2023/01/14 09:47:10;;;;;;;6.15;1.90;;;7.80;99.90;;;;;;4931229;28;21009;-74
2023/01/14 09:49:38;;;;;;;4.95;2.08;;;7.80;99.90;;;;;;4948354;28;20558;-76
2023/01/14 09:52:15;;;;;;;5.50;1.98;;;7.90;99.90;;;;;;4938252;28;20711;-74
2023/01/14 09:54:57;;;;;;;5.45;1.90;;;8.00;99.90;;;;;;4933637;28;20217;-74
2023/01/14 09:57:40;;;;;;;7.47;1.90;;;8.00;99.90;;;;;;4947908;28;20234;-73
2023/01/14 10:00:30;;;;;;;3.30;1.50;;;8.10;99.90;;;;;;4953424;28;20210;-73
2023/01/14 10:03:18;;;;;;;3.55;1.85;;;8.10;99.90;;;;;;4944011;28;20209;-73
2023/01/14 10:05:53;;;;;;;5.28;1.92;;;8.20;99.90;;;;;;4954730;28;20312;-74
2023/01/14 10:08:23;;;;;;;5.03;2.08;;;8.30;99.90;;;;;;4944897;28;20211;-72
2023/01/14 10:10:53;;;;;;;3.03;1.23;;;8.30;99.90;;;;;;4939700;28;20298;-73
2023/01/14 10:13:25;;;;;;;3.25;1.50;;;8.40;99.90;;;;;;4941490;28;20575;-73
2023/01/14 10:15:57;;;;;;;4.20;1.40;;;8.40;99.90;;;;;;4940769;28;20207;-74
2023/01/14 10:18:29;;;;;;;3.08;1.50;;;8.40;99.90;;;;;;4945702;28;20203;-72
2023/01/14 10:20:58;;;;;;;2.58;1.38;;;8.50;99.90;;;;;;4946114;28;20230;-74
2023/01/14 10:23:29;;;;;;;3.45;1.08;;;8.60;99.90;;;;;;4937361;28;20271;-74
2023/01/14 10:25:58;;;;;;;2.70;1.70;;;8.60;99.90;;;;;;4932326;28;20342;-75
2023/01/14 10:28:28;;;;;;;3.85;1.50;;;8.60;99.90;;;;;;4947905;28;20208;-75
2023/01/14 10:30:58;;;;;;;1.90;1.70;;;8.70;99.90;;;;;;4948175;28;20207;-74
2023/01/14 10:33:26;;;;;;;5.25;1.80;;;8.70;99.90;;;;;;4944130;28;20224;-75
2023/01/14 10:35:58;;;;;;;3.70;2.05;;;8.70;99.90;;;;;;4948546;28;20203;-74
2023/01/14 10:38:27;;;;;;;4.97;2.17;;;8.70;99.90;;;;;;4953097;28;20199;-73
2023/01/14 10:41:00;;;;;;;3.70;1.73;;;8.70;99.90;;;;;;4950419;28;20232;-74
2023/01/14 10:43:34;;;;;;;3.38;1.98;;;8.70;99.90;;;;;;4952488;28;20225;-74
2023/01/14 10:46:02;;;;;;;3.92;1.70;;;8.80;99.90;;;;;;4951988;28;20205;-74
2023/01/14 10:48:37;;;;;;;3.30;1.50;;;8.80;99.90;;;;;;4955539;28;20263;-75
2023/01/14 10:51:35;;;;;;;6.43;2.45;;;8.80;99.90;;;;;;4951875;28;20571;-75
2023/01/14 10:54:14;;;;;;;5.43;1.92;;;8.70;99.90;;;;;;4944909;28;20370;-74
2023/01/14 10:56:47;;;;;;;3.67;1.50;;;8.70;99.90;;;;;;4950475;28;20198;-74
2023/01/14 10:59:38;;;;;;;3.63;1.30;;;8.70;99.90;;;;;;4934861;28;20250;-74
2023/01/14 11:02:05;;;;;;;3.50;2.10;;;8.80;99.90;;;;;;4946347;28;20223;-74
2023/01/14 11:04:36;;;;;;;3.55;1.70;;;8.80;99.90;;;;;;4943651;28;20758;-81
2023/01/14 11:07:10;;;;;;;2.35;1.50;;;8.90;99.90;;;;;;4939950;28;20576;-77
2023/01/14 11:09:37;;;;;;;2.67;1.50;;;8.90;99.90;;;;;;4936848;28;20363;-74
2023/01/14 11:12:06;;;;;;;2.63;1.25;;;8.90;99.90;;;;;;4939314;28;20217;-74
2023/01/14 11:14:37;;;;;;;4.22;2.03;;;8.90;99.90;;;;;;4947537;28;20220;-74
2023/01/14 11:17:22;;;;;;;3.03;1.63;;;8.90;99.90;;;;;;4946994;29;20205;-75
2023/01/14 11:19:49;;;;;;;4.25;2.08;;;8.90;99.90;;;;;;4945723;29;20304;-73
2023/01/14 11:22:16;;;;;;;4.10;2.10;;;8.90;99.90;;;;;;4945805;28;20214;-73
2023/01/14 11:24:46;;;;;;;4.05;2.05;;;8.90;99.90;;;;;;4945258;28;20803;-74
2023/01/14 11:27:18;;;;;;;5.18;2.10;;;8.90;99.90;;;;;;4948001;29;20197;-75
2023/01/14 11:29:48;;;;;;;2.60;1.60;;;8.90;99.90;;;;;;4942796;29;20231;-74
2023/01/14 11:32:21;;;;;;;5.93;2.22;;;8.90;99.90;;;;;;4947072;29;20211;-74
2023/01/14 11:34:51;;;;;;;2.78;1.50;;;8.90;99.90;;;;;;4947328;29;20223;-73
2023/01/14 11:37:21;;;;;;;1.60;1.20;;;8.90;99.90;;;;;;4945128;29;20203;-74
2023/01/14 11:39:51;;;;;;;2.30;1.25;;;9.00;99.90;;;;;;4943149;28;20711;-74
2023/01/14 11:42:31;;;;;;;2.88;1.35;;;9.00;99.90;;;;;;4948425;28;20204;-74
2023/01/14 11:44:59;;;;;;;1.58;1.02;;;9.10;99.90;;;;;;4948483;29;20226;-73
2023/01/14 11:47:26;;;;;;;2.03;1.30;;;9.20;99.90;;;;;;4941914;28;20337;-75
2023/01/14 11:50:15;;;;;;;5.57;1.30;;;9.20;99.90;;;;;;4931752;28;20207;-74
2023/01/14 11:52:54;;;;;;;2.17;1.15;;;9.30;99.90;;;;;;4943047;28;20213;-73
2023/01/14 11:55:21;;;;;;;2.47;0.90;;;9.40;99.90;;;;;;4942952;28;20204;-75
2023/01/14 11:57:50;;;;;;;1.60;1.25;;;9.40;99.90;;;;;;4938716;28;20200;-73
2023/01/14 12:00:17;;;;;;;3.08;1.13;;;9.50;99.90;;;;;;4944137;28;20586;-73
2023/01/14 12:02:47;;;;;;;1.88;0.90;;;9.50;99.90;;;;;;4938213;28;20282;-73
2023/01/14 12:05:17;;;;;;;1.02;0.80;;;9.50;99.90;;;;;;4938813;28;20204;-74
2023/01/14 12:07:47;;;;;;;1.88;1.17;;;9.60;99.90;;;;;;4938559;28;20199;-74
2023/01/14 12:10:20;;;;;;;1.33;1.05;;;9.80;99.90;;;;;;4939376;28;20241;-73
2023/01/14 12:18:37;;;;;;;2.15;1.17;;;9.70;99.90;;;;;;4937396;28;20299;-73
2023/01/14 12:21:06;;;;;;;2.63;1.30;;;9.70;99.90;;;;;;4933182;28;20236;-74
2023/01/14 12:23:43;;;;;;;1.55;1.00;;;9.70;99.90;;;;;;4947825;28;20224;-73
2023/01/14 12:26:19;;;;;;;2.83;1.20;;;9.70;99.90;;;;;;4937065;28;20211;-74
2023/01/14 12:28:55;;;;;;;1.25;0.95;;;9.70;99.90;;;;;;4946681;28;20491;-74
2023/01/14 12:31:26;;;;;;;1.83;1.20;;;9.60;99.90;;;;;;4950604;29;20207;-71
2023/01/14 12:33:59;;;;;;;1.10;0.93;;;9.60;99.90;;;;;;4939474;28;20525;-72
2023/01/14 12:36:33;;;;;;;2.20;1.13;;;9.60;99.90;;;;;;4945842;29;20231;-74
2023/01/14 12:47:33;;;;;;;1.52;0.98;;;9.60;99.90;;;;;;4948036;28;20204;-73
2023/01/14 12:50:01;;;;;;;5.50;1.45;;;9.60;99.90;;;;;;4942617;28;20212;-73
2023/01/14 12:52:31;;;;;;;2.50;1.20;;;9.50;99.90;;;;;;4947601;28;20200;-73
2023/01/14 12:55:00;;;;;;;2.10;1.05;;;9.50;99.90;;;;;;4948655;28;20225;-73
2023/01/14 12:57:28;;;;;;;1.90;1.20;;;9.60;99.90;;;;;;4945904;28;20206;-73
2023/01/14 13:00:03;;;;;;;1.65;1.20;;;9.50;99.90;;;;;;4944546;28;20242;-72
2023/01/14 13:02:37;;;;;;;2.15;1.10;;;9.50;99.90;;;;;;4941829;28;20608;-73
2023/01/14 13:05:08;;;;;;;2.65;1.13;;;9.50;99.90;;;;;;4943299;28;20200;-73
2023/01/14 13:07:38;;;;;;;2.38;1.30;;;9.50;99.90;;;;;;4926459;28;20199;-75
2023/01/14 13:10:08;;;;;;;2.10;1.30;;;9.60;99.90;;;;;;4938435;28;20231;-73
2023/01/14 13:12:39;;;;;;;2.78;1.10;;;9.60;99.90;;;;;;4948885;28;20254;-76
2023/01/14 13:15:24;;;;;;;3.40;1.55;;;9.60;99.90;;;;;;4947899;28;20196;-74
2023/01/14 13:17:55;;;;;;;3.00;1.38;;;9.60;99.90;;;;;;4931208;28;20236;-72
2023/01/14 13:20:51;;;;;;;2.35;0.95;;;9.60;99.90;;;;;;4941033;28;20224;-72
2023/01/14 13:24:04;;;;;;;1.85;1.10;;;9.60;99.90;;;;;;4927937;28;21206;-72
2023/01/14 13:26:59;;;;;;;3.22;1.00;;;9.60;99.90;;;;;;4936743;28;20700;-73
2023/01/14 13:29:30;;;;;;;2.45;1.17;;;9.60;99.90;;;;;;4914457;28;20218;-73
2023/01/14 13:32:00;;;;;;;1.23;1.13;;;9.70;99.90;;;;;;4945420;28;20222;-73
2023/01/14 13:34:59;;;;;;;2.78;1.40;;;9.70;99.90;;;;;;4934703;28;20225;-73
2023/01/14 13:37:42;;;;;;;2.13;1.10;;;9.70;99.90;;;;;;4946185;28;20204;-72
2023/01/14 13:40:18;;;;;;;2.67;1.42;;;9.70;99.90;;;;;;4935022;28;20264;-73
2023/01/14 13:42:54;;;;;;;1.95;1.20;;;9.70;99.90;;;;;;4913428;28;20255;-74
2023/01/14 13:45:26;;;;;;;1.95;1.25;;;9.70;99.90;;;;;;4924616;29;20983;-72
2023/01/14 13:47:56;;;;;;;2.05;1.10;;;9.70;99.90;;;;;;4928521;29;20645;-72
2023/01/14 13:50:27;;;;;;;2.13;1.30;;;9.70;99.90;;;;;;4939963;29;20228;-73
2023/01/14 13:52:59;;;;;;;1.58;1.30;;;9.70;99.90;;;;;;4923233;29;20216;-73
2023/01/14 13:55:30;;;;;;;2.72;1.10;;;9.70;99.90;;;;;;4924776;29;20211;-73
2023/01/14 13:58:01;;;;;;;2.45;1.55;;;9.70;99.90;;;;;;4927625;29;20737;-74